Time;durP1;ratioP1;P1;durP2;ratioP2;P2;SDS_P1;SDS_P2;PMS_P1;PMS_P2;Temp;Humidity;BMP_temperature;BMP_pressure;BME280_temperature;BME280_humidity;BME280_pressure;Samples;Min_cycle;Max_cycle;Signal;HPM_P1;HPM_P2
2023/05/09 00:00:29;;;;;;;57.87;2.80;;;;;;;;;;5072012;28;20470;-69
2023/05/09 00:02:56;;;;;;;57.60;2.60;;;;;;;;;;5072279;28;20451;-69
2023/05/09 00:05:24;;;;;;;57.87;3.60;;;;;;;;;;5072030;28;20456;-69
2023/05/09 00:07:52;;;;;;;57.17;2.30;;;;;;;;;;5072317;28;20448;-69
2023/05/09 00:10:19;;;;;;;59.17;3.83;;;;;;;;;;5071766;28;20475;-69
2023/05/09 00:12:48;;;;;;;59.60;4.20;;;;;;;;;;5072066;28;20452;-69
2023/05/09 00:15:15;;;;;;;59.90;2.80;;;;;;;;;;5072125;28;20451;-69
2023/05/09 00:17:44;;;;;;;57.47;2.47;;;;;;;;;;5071813;28;20486;-69
2023/05/09 00:20:12;;;;;;;57.47;2.60;;;;;;;;;;5071772;28;20512;-69
2023/05/09 00:22:39;;;;;;;57.37;2.57;;;;;;;;;;5071939;28;20449;-69
2023/05/09 00:25:09;;;;;;;57.57;2.67;;;;;;;;;;5071816;28;20466;-69
2023/05/09 00:27:36;;;;;;;57.77;3.13;;;;;;;;;;5072032;28;20451;-69
2023/05/09 00:30:04;;;;;;;58.00;2.90;;;;;;;;;;5071443;28;20999;-69
2023/05/09 00:32:31;;;;;;;57.27;2.30;;;;;;;;;;5071345;28;20522;-69
2023/05/09 00:34:58;;;;;;;59.10;3.70;;;;;;;;;;5072032;28;20635;-69
2023/05/09 00:37:25;;;;;;;61.50;3.60;;;;;;;;;;5071640;28;20578;-69
2023/05/09 00:39:52;;;;;;;58.27;2.47;;;;;;;;;;5071330;28;20987;-69
2023/05/09 00:42:21;;;;;;;58.23;2.83;;;;;;;;;;5071803;28;20455;-70
2023/05/09 00:44:48;;;;;;;57.40;2.40;;;;;;;;;;5072115;28;20451;-69
2023/05/09 00:47:15;;;;;;;57.90;2.60;;;;;;;;;;5072021;28;20439;-69
2023/05/09 00:49:42;;;;;;;57.50;2.87;;;;;;;;;;5071484;28;20835;-69
2023/05/09 00:52:10;;;;;;;57.60;2.80;;;;;;;;;;5071952;28;20825;-69
2023/05/09 00:54:37;;;;;;;58.50;3.40;;;;;;;;;;5071624;28;20451;-69
2023/05/09 00:57:04;;;;;;;57.97;3.10;;;;;;;;;;5071644;28;20475;-69
2023/05/09 00:59:32;;;;;;;61.27;4.33;;;;;;;;;;5071131;28;20443;-69
2023/05/09 01:01:59;;;;;;;57.17;2.40;;;;;;;;;;5071570;28;20452;-70
2023/05/09 01:04:27;;;;;;;57.90;3.60;;;;;;;;;;5071688;28;20475;-69
2023/05/09 01:06:57;;;;;;;61.00;4.63;;;;;;;;;;5071470;28;20451;-69
2023/05/09 01:09:27;;;;;;;58.23;3.17;;;;;;;;;;5071192;28;20451;-69
2023/05/09 01:11:57;;;;;;;57.70;2.60;;;;;;;;;;5071963;28;20454;-69
2023/05/09 01:14:29;;;;;;;57.53;2.43;;;;;;;;;;5071503;28;20457;-69
2023/05/09 01:17:00;;;;;;;58.47;3.00;;;;;;;;;;5071302;28;21011;-69
2023/05/09 01:19:47;;;;;;;57.33;2.70;;;;;;;;;;5071050;28;20447;-69
2023/05/09 01:22:15;;;;;;;57.20;2.80;;;;;;;;;;5071413;28;20457;-69
2023/05/09 01:24:58;;;;;;;57.53;2.77;;;;;;;;;;5071392;28;20459;-69
2023/05/09 01:27:33;;;;;;;57.73;2.73;;;;;;;;;;5071336;28;20966;-69
2023/05/09 01:30:03;;;;;;;57.67;2.70;;;;;;;;;;5071067;28;20467;-69
2023/05/09 01:32:32;;;;;;;59.33;3.50;;;;;;;;;;5071247;28;20448;-69
2023/05/09 01:35:00;;;;;;;57.90;2.67;;;;;;;;;;5071124;28;20440;-69
2023/05/09 01:37:30;;;;;;;57.97;4.00;;;;;;;;;;5071374;28;20439;-69
2023/05/09 01:39:59;;;;;;;57.57;2.60;;;;;;;;;;5071176;28;20463;-69
2023/05/09 01:42:27;;;;;;;57.90;2.60;;;;;;;;;;5072521;28;20447;-69
2023/05/09 01:44:55;;;;;;;57.50;2.20;;;;;;;;;;5074979;28;20443;-69
2023/05/09 01:47:24;;;;;;;58.33;4.27;;;;;;;;;;5074615;28;20517;-69
2023/05/09 01:49:52;;;;;;;58.27;3.10;;;;;;;;;;5074530;28;20507;-69
2023/05/09 01:52:20;;;;;;;58.20;3.00;;;;;;;;;;5074895;28;20453;-69
2023/05/09 01:54:48;;;;;;;58.00;2.90;;;;;;;;;;5074563;28;20490;-69
2023/05/09 01:57:15;;;;;;;58.27;3.30;;;;;;;;;;5073358;28;20470;-69
2023/05/09 01:59:44;;;;;;;57.57;2.53;;;;;;;;;;5074464;28;21071;-69
2023/05/09 02:02:12;;;;;;;57.60;2.70;;;;;;;;;;5074818;28;20454;-69
2023/05/09 02:04:41;;;;;;;57.70;2.67;;;;;;;;;;5074668;28;20823;-69
2023/05/09 02:07:08;;;;;;;57.43;2.50;;;;;;;;;;5074462;28;20479;-69
2023/05/09 02:09:35;;;;;;;57.90;3.07;;;;;;;;;;5074039;28;20450;-69
2023/05/09 02:12:04;;;;;;;57.47;2.53;;;;;;;;;;5074549;28;20443;-69
2023/05/09 02:14:31;;;;;;;58.57;3.13;;;;;;;;;;5074458;28;20455;-69
2023/05/09 02:16:58;;;;;;;57.83;3.23;;;;;;;;;;5074365;28;20810;-69
2023/05/09 02:19:25;;;;;;;57.57;2.70;;;;;;;;;;5073844;28;20554;-69
2023/05/09 02:21:54;;;;;;;57.67;2.70;;;;;;;;;;5074656;28;20940;-69
2023/05/09 02:24:21;;;;;;;59.50;2.97;;;;;;;;;;5074079;28;21042;-69
2023/05/09 02:26:48;;;;;;;57.73;2.90;;;;;;;;;;5074215;28;20444;-69
2023/05/09 02:29:17;;;;;;;58.00;3.63;;;;;;;;;;5073954;28;20963;-69
2023/05/09 02:31:45;;;;;;;57.77;3.00;;;;;;;;;;5074069;28;20463;-69
2023/05/09 02:34:12;;;;;;;58.87;3.73;;;;;;;;;;5074079;28;20453;-69
2023/05/09 02:36:39;;;;;;;57.50;2.50;;;;;;;;;;5073841;28;20448;-69
2023/05/09 02:39:08;;;;;;;57.37;2.50;;;;;;;;;;5073803;28;20814;-69
2023/05/09 02:41:35;;;;;;;57.60;2.83;;;;;;;;;;5074015;28;21139;-69
2023/05/09 02:44:02;;;;;;;57.77;3.10;;;;;;;;;;5073925;28;20448;-69
2023/05/09 02:46:29;;;;;;;57.50;2.50;;;;;;;;;;5073738;28;20955;-69
2023/05/09 02:48:57;;;;;;;58.23;4.17;;;;;;;;;;5073302;28;20578;-69
2023/05/09 02:51:24;;;;;;;57.40;2.43;;;;;;;;;;5073233;28;20478;-69
2023/05/09 02:53:51;;;;;;;57.40;2.43;;;;;;;;;;5073200;28;20458;-69
2023/05/09 02:56:19;;;;;;;57.53;2.60;;;;;;;;;;5073684;28;20439;-69
2023/05/09 02:58:50;;;;;;;57.47;2.70;;;;;;;;;;5073182;28;20443;-67
2023/05/09 03:01:17;;;;;;;57.57;2.80;;;;;;;;;;5073646;28;20482;-67
2023/05/09 03:03:45;;;;;;;58.77;3.07;;;;;;;;;;5073329;28;20455;-69
2023/05/09 03:06:13;;;;;;;59.40;3.13;;;;;;;;;;5073575;28;20448;-69
2023/05/09 03:08:40;;;;;;;57.70;3.00;;;;;;;;;;5073217;28;20888;-69
2023/05/09 03:11:07;;;;;;;57.60;2.70;;;;;;;;;;5073318;28;20475;-69
2023/05/09 03:13:35;;;;;;;57.53;2.70;;;;;;;;;;5073173;28;20448;-69
2023/05/09 03:16:02;;;;;;;57.93;3.70;;;;;;;;;;5073113;28;20458;-69
2023/05/09 03:18:29;;;;;;;57.57;2.90;;;;;;;;;;5073127;28;20458;-69
2023/05/09 03:20:56;;;;;;;59.17;3.60;;;;;;;;;;5073090;28;20471;-69
2023/05/09 03:23:24;;;;;;;57.90;3.07;;;;;;;;;;5073017;28;20443;-69
2023/05/09 03:25:51;;;;;;;57.40;2.60;;;;;;;;;;5073123;28;20451;-69
2023/05/09 03:28:18;;;;;;;59.17;4.20;;;;;;;;;;5072853;28;20479;-69
2023/05/09 03:30:46;;;;;;;58.23;3.63;;;;;;;;;;5072461;28;20478;-69
2023/05/09 03:33:13;;;;;;;57.63;2.73;;;;;;;;;;5073021;28;20462;-69
2023/05/09 03:35:40;;;;;;;58.67;3.03;;;;;;;;;;5072998;28;20455;-69
2023/05/09 03:38:08;;;;;;;57.63;2.97;;;;;;;;;;5072594;28;20454;-69
2023/05/09 03:40:35;;;;;;;57.83;3.40;;;;;;;;;;5072323;28;20471;-69
2023/05/09 03:43:02;;;;;;;57.80;2.73;;;;;;;;;;5072748;28;20446;-69
2023/05/09 03:45:29;;;;;;;57.80;3.03;;;;;;;;;;5072454;28;20936;-69
2023/05/09 03:47:58;;;;;;;57.50;2.60;;;;;;;;;;5072343;28;20479;-69
2023/05/09 03:50:25;;;;;;;60.30;5.00;;;;;;;;;;5072270;28;20546;-69
2023/05/09 03:52:54;;;;;;;57.97;3.17;;;;;;;;;;5072532;28;20458;-69
2023/05/09 03:55:22;;;;;;;57.57;2.50;;;;;;;;;;5072508;28;20530;-69
2023/05/09 03:57:50;;;;;;;57.77;3.00;;;;;;;;;;5072379;28;20512;-69
2023/05/09 04:00:17;;;;;;;58.10;3.07;;;;;;;;;;5071760;28;20497;-70
2023/05/09 04:02:44;;;;;;;59.90;5.57;;;;;;;;;;5072480;28;20816;-69
2023/05/09 04:05:13;;;;;;;59.40;3.47;;;;;;;;;;5072031;28;20456;-69
2023/05/09 04:07:40;;;;;;;59.17;3.97;;;;;;;;;;5071858;28;20484;-69
2023/05/09 04:10:08;;;;;;;58.30;3.40;;;;;;;;;;5071731;28;20471;-69
2023/05/09 04:12:35;;;;;;;57.63;2.87;;;;;;;;;;5071984;28;20447;-69
2023/05/09 04:15:02;;;;;;;57.40;2.60;;;;;;;;;;5072307;28;20443;-69
2023/05/09 04:17:30;;;;;;;58.10;3.70;;;;;;;;;;5072256;28;20479;-69
2023/05/09 04:19:57;;;;;;;58.00;3.33;;;;;;;;;;5071738;28;20482;-69
2023/05/09 04:22:25;;;;;;;58.10;3.33;;;;;;;;;;5071933;28;20457;-69
2023/05/09 04:24:52;;;;;;;57.20;2.60;;;;;;;;;;5071837;28;20459;-70
2023/05/09 04:27:19;;;;;;;57.90;3.17;;;;;;;;;;5071795;28;20457;-69
2023/05/09 04:29:48;;;;;;;57.47;2.97;;;;;;;;;;5071645;28;20477;-69
2023/05/09 04:32:15;;;;;;;57.77;2.90;;;;;;;;;;5072185;28;20447;-69
2023/05/09 04:34:42;;;;;;;57.30;2.40;;;;;;;;;;5071905;28;20455;-69
2023/05/09 04:37:09;;;;;;;58.37;3.10;;;;;;;;;;5071793;28;20453;-69
2023/05/09 04:39:38;;;;;;;58.20;3.40;;;;;;;;;;5071266;28;20448;-69
2023/05/09 04:42:05;;;;;;;58.07;2.97;;;;;;;;;;5072088;28;20454;-69
2023/05/09 04:44:34;;;;;;;57.17;2.67;;;;;;;;;;5071673;28;20443;-69
2023/05/09 04:47:01;;;;;;;58.07;2.50;;;;;;;;;;5071816;28;20486;-69
2023/05/09 04:49:28;;;;;;;57.80;3.10;;;;;;;;;;5071291;28;20487;-69
2023/05/09 04:51:55;;;;;;;58.27;2.73;;;;;;;;;;5071592;28;20963;-70
2023/05/09 04:54:23;;;;;;;57.90;3.30;;;;;;;;;;5072098;28;20443;-69
2023/05/09 04:56:51;;;;;;;57.67;3.33;;;;;;;;;;5071796;28;20451;-69
2023/05/09 04:59:18;;;;;;;59.80;3.30;;;;;;;;;;5071228;28;20443;-69
2023/05/09 05:01:45;;;;;;;57.60;3.67;;;;;;;;;;5071919;28;20503;-69
2023/05/09 05:04:12;;;;;;;60.90;3.20;;;;;;;;;;5071423;28;20451;-69
2023/05/09 05:06:39;;;;;;;58.50;3.30;;;;;;;;;;5071454;28;20476;-69
2023/05/09 05:09:07;;;;;;;57.13;2.40;;;;;;;;;;5071341;28;20490;-69
2023/05/09 05:11:34;;;;;;;58.20;3.50;;;;;;;;;;5071596;28;20467;-69
2023/05/09 05:14:02;;;;;;;57.27;2.90;;;;;;;;;;5071586;28;20528;-70
2023/05/09 05:16:29;;;;;;;60.60;3.80;;;;;;;;;;5071599;28;20447;-70
2023/05/09 05:18:56;;;;;;;57.33;2.50;;;;;;;;;;5074901;28;20530;-69
2023/05/09 05:21:23;;;;;;;57.30;3.37;;;;;;;;;;5075199;28;20471;-69
2023/05/09 05:23:51;;;;;;;57.93;3.43;;;;;;;;;;5075410;28;20843;-69
2023/05/09 05:26:18;;;;;;;57.40;3.13;;;;;;;;;;5075265;28;20451;-69
2023/05/09 05:28:45;;;;;;;57.37;2.70;;;;;;;;;;5074925;28;20478;-70
2023/05/09 05:31:13;;;;;;;57.50;2.87;;;;;;;;;;5075180;28;20467;-69
2023/05/09 05:33:41;;;;;;;57.13;2.50;;;;;;;;;;5074956;28;20458;-69
2023/05/09 05:36:08;;;;;;;57.47;2.70;;;;;;;;;;5075288;28;20457;-69
2023/05/09 05:38:35;;;;;;;57.70;3.10;;;;;;;;;;5074869;28;20451;-69
2023/05/09 05:41:02;;;;;;;57.70;2.90;;;;;;;;;;5074874;28;20975;-69
2023/05/09 05:43:29;;;;;;;57.30;2.70;;;;;;;;;;5075037;28;20449;-69
2023/05/09 05:45:56;;;;;;;57.27;2.57;;;;;;;;;;5074836;28;21014;-69
2023/05/09 05:48:25;;;;;;;58.20;3.07;;;;;;;;;;5074584;28;20488;-69
2023/05/09 05:50:52;;;;;;;57.27;2.57;;;;;;;;;;5074450;28;20976;-69
2023/05/09 05:53:19;;;;;;;57.77;3.63;;;;;;;;;;5074882;28;20442;-69
2023/05/09 05:55:48;;;;;;;59.33;4.20;;;;;;;;;;5074798;28;20446;-69
2023/05/09 05:58:15;;;;;;;57.43;2.73;;;;;;;;;;5074581;28;20443;-69
2023/05/09 06:00:42;;;;;;;57.40;3.00;;;;;;;;;;5074330;28;20840;-69
2023/05/09 06:03:12;;;;;;;57.47;2.97;;;;;;;;;;5074812;28;20446;-69
2023/05/09 06:05:43;;;;;;;58.17;3.17;;;;;;;;;;5074765;28;20908;-69
2023/05/09 06:08:10;;;;;;;57.07;2.60;;;;;;;;;;5074435;28;20505;-70
2023/05/09 06:10:38;;;;;;;64.23;3.27;;;;;;;;;;5074195;28;20845;-69
2023/05/09 06:13:05;;;;;;;58.03;4.10;;;;;;;;;;5074372;28;20454;-69
2023/05/09 06:15:32;;;;;;;57.50;2.97;;;;;;;;;;5074201;28;20451;-69
2023/05/09 06:17:59;;;;;;;57.90;2.93;;;;;;;;;;5074442;28;20448;-69
2023/05/09 06:20:26;;;;;;;59.30;3.33;;;;;;;;;;5074021;28;20469;-69
2023/05/09 06:22:55;;;;;;;58.93;4.57;;;;;;;;;;5074403;28;20840;-69
2023/05/09 06:25:22;;;;;;;58.37;2.97;;;;;;;;;;5074121;28;20469;-70
2023/05/09 06:27:49;;;;;;;59.00;4.33;;;;;;;;;;5073988;28;20448;-67
2023/05/09 06:30:17;;;;;;;57.90;2.83;;;;;;;;;;5072650;28;20495;-68
2023/05/09 06:32:44;;;;;;;58.53;4.23;;;;;;;;;;5073985;28;20821;-68
2023/05/09 06:35:11;;;;;;;60.00;2.93;;;;;;;;;;5074106;28;20443;-68
2023/05/09 06:37:39;;;;;;;58.20;3.10;;;;;;;;;;5074042;28;20447;-68
2023/05/09 06:40:08;;;;;;;59.30;3.70;;;;;;;;;;5073450;28;20467;-68
2023/05/09 06:42:35;;;;;;;58.50;3.40;;;;;;;;;;5073710;28;20447;-68
2023/05/09 06:45:02;;;;;;;59.40;3.80;;;;;;;;;;5073958;28;20447;-67
2023/05/09 06:47:29;;;;;;;57.90;2.90;;;;;;;;;;5073875;28;20450;-68
2023/05/09 06:49:57;;;;;;;64.50;4.27;;;;;;;;;;5073210;28;20491;-68
2023/05/09 06:52:24;;;;;;;57.80;3.43;;;;;;;;;;5073680;28;20982;-68
2023/05/09 06:54:52;;;;;;;57.37;2.90;;;;;;;;;;5073500;28;20451;-68
2023/05/09 06:57:20;;;;;;;61.20;4.47;;;;;;;;;;5073404;28;20462;-68
2023/05/09 06:59:47;;;;;;;58.67;4.50;;;;;;;;;;5073292;28;20467;-68
2023/05/09 07:02:15;;;;;;;57.30;2.17;;;;;;;;;;5073614;28;20470;-68
2023/05/09 07:04:42;;;;;;;57.97;2.70;;;;;;;;;;5073384;28;20555;-68
2023/05/09 07:07:09;;;;;;;57.30;2.70;;;;;;;;;;5073382;28;20470;-68
2023/05/09 07:09:36;;;;;;;57.77;2.77;;;;;;;;;;5072731;28;20483;-68
2023/05/09 07:12:03;;;;;;;61.50;5.03;;;;;;;;;;5073263;28;20459;-68
2023/05/09 07:14:31;;;;;;;57.40;3.10;;;;;;;;;;5073120;28;20443;-68
2023/05/09 07:16:59;;;;;;;57.90;2.97;;;;;;;;;;5073344;28;20447;-68
2023/05/09 07:19:26;;;;;;;57.80;3.03;;;;;;;;;;5072790;28;20450;-68
2023/05/09 07:21:53;;;;;;;58.00;2.53;;;;;;;;;;5073067;28;20497;-68
2023/05/09 07:24:20;;;;;;;57.83;3.40;;;;;;;;;;5072766;28;20972;-68
2023/05/09 07:26:47;;;;;;;57.57;2.17;;;;;;;;;;5073075;28;20451;-68
2023/05/09 07:29:14;;;;;;;57.60;2.77;;;;;;;;;;5072791;28;20943;-68
2023/05/09 07:31:43;;;;;;;57.47;2.90;;;;;;;;;;5072931;28;20463;-68
2023/05/09 07:34:10;;;;;;;58.80;2.80;;;;;;;;;;5072794;28;20493;-68
2023/05/09 07:36:37;;;;;;;57.80;3.40;;;;;;;;;;5072717;28;20447;-68
2023/05/09 07:39:04;;;;;;;57.87;2.90;;;;;;;;;;5072616;28;20451;-68
2023/05/09 07:41:32;;;;;;;57.30;3.30;;;;;;;;;;5072592;28;20900;-68
2023/05/09 07:43:59;;;;;;;57.73;3.43;;;;;;;;;;5072768;28;20443;-68
2023/05/09 07:46:26;;;;;;;58.00;3.43;;;;;;;;;;5072658;28;20447;-68
2023/05/09 07:48:54;;;;;;;58.43;3.10;;;;;;;;;;5072212;28;20566;-68
2023/05/09 07:51:21;;;;;;;59.43;3.63;;;;;;;;;;5072321;28;21008;-68
2023/05/09 07:53:48;;;;;;;58.90;2.97;;;;;;;;;;5072597;28;20448;-68
2023/05/09 07:56:15;;;;;;;59.70;3.50;;;;;;;;;;5072575;28;20449;-69
2023/05/09 07:58:43;;;;;;;59.43;3.10;;;;;;;;;;5071976;28;20936;-69
2023/05/09 08:01:10;;;;;;;63.33;3.70;;;;;;;;;;5072297;28;20467;-69
2023/05/09 08:03:37;;;;;;;57.50;3.67;;;;;;;;;;5072262;28;20458;-68
2023/05/09 08:06:05;;;;;;;57.40;2.60;;;;;;;;;;5072361;28;21085;-68
2023/05/09 08:08:32;;;;;;;59.87;3.73;;;;;;;;;;5072089;28;20459;-68
2023/05/09 08:10:59;;;;;;;62.10;5.57;;;;;;;;;;5072486;28;20470;-68
2023/05/09 08:13:27;;;;;;;57.97;3.10;;;;;;;;;;5072115;28;20447;-68
2023/05/09 08:15:54;;;;;;;60.77;4.10;;;;;;;;;;5072057;28;20443;-68
2023/05/09 08:18:21;;;;;;;58.77;3.33;;;;;;;;;;5071838;28;20451;-68
2023/05/09 08:20:48;;;;;;;62.03;3.83;;;;;;;;;;5071890;28;20468;-68
2023/05/09 08:23:16;;;;;;;57.40;2.57;;;;;;;;;;5072135;28;20534;-68
2023/05/09 08:25:43;;;;;;;60.20;4.80;;;;;;;;;;5071790;28;20461;-69
2023/05/09 08:28:11;;;;;;;57.83;2.80;;;;;;;;;;5071952;28;20550;-69
2023/05/09 08:30:38;;;;;;;57.93;4.20;;;;;;;;;;5071479;28;20498;-68
2023/05/09 08:33:05;;;;;;;58.40;4.50;;;;;;;;;;5072010;28;20525;-69
2023/05/09 08:35:32;;;;;;;59.27;4.17;;;;;;;;;;5071998;28;20447;-69
2023/05/09 08:37:59;;;;;;;59.00;3.20;;;;;;;;;;5071661;28;20953;-68
2023/05/09 08:40:27;;;;;;;58.77;3.93;;;;;;;;;;5071940;28;20455;-68
2023/05/09 08:42:55;;;;;;;57.20;2.50;;;;;;;;;;5071921;28;20796;-68
2023/05/09 08:45:26;;;;;;;57.17;2.80;;;;;;;;;;5071659;28;20451;-69
2023/05/09 08:47:53;;;;;;;56.97;2.10;;;;;;;;;;5071745;28;20468;-69
2023/05/09 08:50:21;;;;;;;57.60;3.73;;;;;;;;;;5071511;28;20491;-69
2023/05/09 08:52:48;;;;;;;57.70;3.20;;;;;;;;;;5071512;28;20473;-69
2023/05/09 08:55:15;;;;;;;57.50;2.70;;;;;;;;;;5071830;28;20975;-69
2023/05/09 08:57:44;;;;;;;58.47;3.57;;;;;;;;;;5071631;28;20454;-69
2023/05/09 09:00:12;;;;;;;57.10;2.57;;;;;;;;;;5071107;28;20470;-68
2023/05/09 09:02:41;;;;;;;58.63;3.80;;;;;;;;;;5071708;28;20827;-69
2023/05/09 09:05:09;;;;;;;57.30;2.73;;;;;;;;;;5071518;28;20940;-68
2023/05/09 09:07:37;;;;;;;56.60;2.90;;;;;;;;;;5071458;28;20534;-69
2023/05/09 09:10:05;;;;;;;58.47;3.23;;;;;;;;;;5071039;28;20483;-69
2023/05/09 09:12:33;;;;;;;56.80;2.37;;;;;;;;;;5071437;28;20500;-68
2023/05/09 09:15:04;;;;;;;56.80;2.10;;;;;;;;;;5071435;28;20443;-69
2023/05/09 09:17:31;;;;;;;57.17;2.50;;;;;;;;;;5071614;28;20454;-68
2023/05/09 09:19:59;;;;;;;56.87;2.50;;;;;;;;;;5071137;28;20459;-68
2023/05/09 09:22:31;;;;;;;56.67;2.20;;;;;;;;;;5071341;28;20911;-68
2023/05/09 09:24:59;;;;;;;57.00;2.10;;;;;;;;;;5071154;28;20839;-69
2023/05/09 09:27:26;;;;;;;57.40;2.33;;;;;;;;;;5071539;28;20447;-68
2023/05/09 09:29:53;;;;;;;56.87;2.03;;;;;;;;;;5070983;28;20491;-69
2023/05/09 09:32:31;;;;;;;58.37;3.93;;;;;;;;;;5071424;28;20804;-69
2023/05/09 09:35:05;;;;;;;57.20;3.37;;;;;;;;;;5071334;28;20474;-68
2023/05/09 09:37:33;;;;;;;57.00;2.10;;;;;;;;;;5071179;28;20451;-69
2023/05/09 09:40:01;;;;;;;57.10;2.13;;;;;;;;;;5071052;28;20878;-69
2023/05/09 09:42:28;;;;;;;57.03;2.30;;;;;;;;;;5071347;28;20443;-69
2023/05/09 09:44:57;;;;;;;57.20;2.20;;;;;;;;;;5071160;28;20448;-68
2023/05/09 09:47:32;;;;;;;57.10;2.37;;;;;;;;;;5071288;28;20500;-69
2023/05/09 09:50:09;;;;;;;56.77;2.00;;;;;;;;;;5070547;28;20573;-69
2023/05/09 09:52:36;;;;;;;57.33;2.90;;;;;;;;;;5071347;28;20447;-69
2023/05/09 09:55:04;;;;;;;57.10;2.00;;;;;;;;;;5071198;28;20454;-69
2023/05/09 09:57:35;;;;;;;57.90;2.87;;;;;;;;;;5071140;28;20493;-69
2023/05/09 10:00:03;;;;;;;57.03;2.63;;;;;;;;;;5071084;28;20470;-69
2023/05/09 10:02:30;;;;;;;57.10;2.20;;;;;;;;;;5070896;28;20811;-69
2023/05/09 10:05:06;;;;;;;57.90;3.53;;;;;;;;;;5073073;28;20451;-69
2023/05/09 10:07:34;;;;;;;56.97;2.67;;;;;;;;;;5074559;28;20450;-69
2023/05/09 10:10:04;;;;;;;57.07;2.50;;;;;;;;;;5074001;28;20497;-69
2023/05/09 10:12:33;;;;;;;56.90;2.30;;;;;;;;;;5074268;28;20454;-69
2023/05/09 10:15:01;;;;;;;57.00;2.20;;;;;;;;;;5074192;28;20454;-69
2023/05/09 10:17:29;;;;;;;57.60;3.00;;;;;;;;;;5074487;28;20447;-69
2023/05/09 10:20:01;;;;;;;57.90;3.40;;;;;;;;;;5074016;28;20854;-69
2023/05/09 10:22:30;;;;;;;56.77;1.90;;;;;;;;;;5074403;28;20458;-69
2023/05/09 10:25:02;;;;;;;57.30;2.57;;;;;;;;;;5074101;28;20463;-69
2023/05/09 10:27:31;;;;;;;57.47;2.43;;;;;;;;;;5074081;28;20555;-69
2023/05/09 10:30:03;;;;;;;57.17;2.20;;;;;;;;;;5073792;28;20894;-69
2023/05/09 10:32:32;;;;;;;57.20;2.30;;;;;;;;;;5074052;28;20451;-69
2023/05/09 10:35:02;;;;;;;57.63;2.13;;;;;;;;;;5074036;28;20487;-69
2023/05/09 10:37:30;;;;;;;57.13;3.23;;;;;;;;;;5073955;28;20953;-69
2023/05/09 10:39:57;;;;;;;57.47;2.57;;;;;;;;;;5073476;28;20554;-69
2023/05/09 10:42:25;;;;;;;56.87;2.37;;;;;;;;;;5074135;28;20447;-69
2023/05/09 10:44:53;;;;;;;56.97;1.97;;;;;;;;;;5074059;28;20451;-69
2023/05/09 10:47:20;;;;;;;57.67;3.00;;;;;;;;;;5073920;28;20500;-69
2023/05/09 10:49:47;;;;;;;57.17;2.53;;;;;;;;;;5072794;28;20527;-69
2023/05/09 10:52:17;;;;;;;56.80;2.30;;;;;;;;;;5073820;28;20443;-69
2023/05/09 10:54:45;;;;;;;57.73;3.10;;;;;;;;;;5073558;28;20817;-69
2023/05/09 10:57:12;;;;;;;57.73;3.67;;;;;;;;;;5073606;28;20443;-69
2023/05/09 10:59:40;;;;;;;57.00;3.03;;;;;;;;;;5073293;28;20454;-69
2023/05/09 11:02:12;;;;;;;56.00;2.10;;;;;;;;;;5073610;28;20826;-69
2023/05/09 11:04:39;;;;;;;58.37;3.27;;;;;;;;;;5073480;28;20451;-69
2023/05/09 11:07:21;;;;;;;56.83;2.33;;;;;;;;;;5073341;28;20454;-69
2023/05/09 11:09:51;;;;;;;58.07;3.03;;;;;;;;;;5073224;28;20836;-69
2023/05/09 11:12:20;;;;;;;57.37;2.90;;;;;;;;;;5073423;28;20451;-69
2023/05/09 11:14:48;;;;;;;57.80;3.70;;;;;;;;;;5072725;28;20447;-69
2023/05/09 11:17:16;;;;;;;57.00;2.33;;;;;;;;;;5073139;28;20447;-69
2023/05/09 11:19:59;;;;;;;58.90;2.43;;;;;;;;;;5072554;28;20447;-70
2023/05/09 11:22:27;;;;;;;56.87;2.20;;;;;;;;;;5073213;28;20492;-69
2023/05/09 11:25:03;;;;;;;57.60;2.70;;;;;;;;;;5072857;28;20459;-70
2023/05/09 11:27:35;;;;;;;56.80;2.67;;;;;;;;;;5073032;28;20450;-70
2023/05/09 11:30:06;;;;;;;56.47;1.80;;;;;;;;;;5072387;28;20564;-67
2023/05/09 11:32:33;;;;;;;55.97;2.60;;;;;;;;;;5073095;28;20455;-67
2023/05/09 11:35:08;;;;;;;57.07;2.13;;;;;;;;;;5072899;28;20451;-67
2023/05/09 11:37:39;;;;;;;56.13;2.23;;;;;;;;;;5072855;28;20466;-70
2023/05/09 11:40:12;;;;;;;56.30;2.10;;;;;;;;;;5072443;28;20474;-68
2023/05/09 11:42:42;;;;;;;57.30;2.53;;;;;;;;;;5072598;28;20452;-67
2023/05/09 11:45:10;;;;;;;56.43;1.97;;;;;;;;;;5072802;28;20440;-69
2023/05/09 11:47:37;;;;;;;56.47;2.70;;;;;;;;;;5072775;28;20997;-69
2023/05/09 11:50:05;;;;;;;57.00;2.47;;;;;;;;;;5071993;28;20483;-68
2023/05/09 11:52:33;;;;;;;59.43;3.40;;;;;;;;;;5072533;28;20451;-69
2023/05/09 11:55:00;;;;;;;59.90;2.60;;;;;;;;;;5072264;28;20459;-69
2023/05/09 11:57:29;;;;;;;56.70;2.33;;;;;;;;;;5072621;28;20458;-68
2023/05/09 11:59:56;;;;;;;61.80;2.90;;;;;;;;;;5072173;28;20472;-69
2023/05/09 12:02:23;;;;;;;61.20;3.50;;;;;;;;;;5072468;28;20780;-69
2023/05/09 12:04:50;;;;;;;58.90;2.97;;;;;;;;;;5072311;28;20450;-70
2023/05/09 12:07:17;;;;;;;57.40;2.67;;;;;;;;;;5072314;28;20447;-69
2023/05/09 12:09:45;;;;;;;57.30;2.53;;;;;;;;;;5071533;28;20820;-69
2023/05/09 12:12:12;;;;;;;58.37;3.23;;;;;;;;;;5072165;28;20947;-69
2023/05/09 12:14:41;;;;;;;57.13;2.27;;;;;;;;;;5072254;28;20455;-70
2023/05/09 12:17:08;;;;;;;57.47;2.87;;;;;;;;;;5072214;28;20797;-69
2023/05/09 12:19:36;;;;;;;56.83;2.10;;;;;;;;;;5071584;28;20486;-70
2023/05/09 12:22:05;;;;;;;56.57;2.47;;;;;;;;;;5071987;28;20507;-70
2023/05/09 12:24:32;;;;;;;56.97;2.37;;;;;;;;;;5071911;28;20490;-70
2023/05/09 12:27:00;;;;;;;57.50;2.37;;;;;;;;;;5071260;28;20453;-70
2023/05/09 12:29:29;;;;;;;56.60;2.30;;;;;;;;;;5071703;28;20447;-70
2023/05/09 12:31:58;;;;;;;56.80;2.37;;;;;;;;;;5071919;28;20486;-70
2023/05/09 12:34:25;;;;;;;57.47;2.67;;;;;;;;;;5071830;28;20447;-70
2023/05/09 12:36:52;;;;;;;57.87;2.83;;;;;;;;;;5071784;28;20967;-69
2023/05/09 12:39:21;;;;;;;57.13;2.57;;;;;;;;;;5071685;28;20450;-70
2023/05/09 12:41:49;;;;;;;57.00;2.40;;;;;;;;;;5071877;28;20555;-69
2023/05/09 12:44:21;;;;;;;57.20;2.30;;;;;;;;;;5071836;28;20455;-70
2023/05/09 12:46:57;;;;;;;61.27;3.07;;;;;;;;;;5071748;28;20444;-70
2023/05/09 12:49:25;;;;;;;56.97;2.50;;;;;;;;;;5071673;28;20439;-68
2023/05/09 12:51:53;;;;;;;58.03;2.40;;;;;;;;;;5071848;28;20506;-68
2023/05/09 12:54:22;;;;;;;56.67;2.83;;;;;;;;;;5071685;28;20451;-68
2023/05/09 12:56:50;;;;;;;56.90;1.90;;;;;;;;;;5071636;28;20489;-69
2023/05/09 12:59:21;;;;;;;56.47;2.07;;;;;;;;;;5071383;28;20751;-69
2023/05/09 13:01:53;;;;;;;56.30;2.23;;;;;;;;;;5071368;28;20478;-68
2023/05/09 13:04:21;;;;;;;56.87;2.00;;;;;;;;;;5071800;28;20461;-69
2023/05/09 13:06:50;;;;;;;58.57;4.50;;;;;;;;;;5071772;28;20450;-69
2023/05/09 13:09:17;;;;;;;56.70;2.70;;;;;;;;;;5071355;28;20457;-69
2023/05/09 13:11:44;;;;;;;56.60;2.20;;;;;;;;;;5071416;28;20479;-69
2023/05/09 13:14:12;;;;;;;57.73;2.63;;;;;;;;;;5071384;28;20451;-69
2023/05/09 13:16:39;;;;;;;57.27;2.00;;;;;;;;;;5071365;28;20447;-69
2023/05/09 13:19:06;;;;;;;56.97;2.50;;;;;;;;;;5071306;28;20458;-69
2023/05/09 13:21:33;;;;;;;56.20;1.90;;;;;;;;;;5071480;28;20486;-69
2023/05/09 13:24:02;;;;;;;56.37;2.30;;;;;;;;;;5071325;28;20454;-69
2023/05/09 13:26:29;;;;;;;56.93;2.33;;;;;;;;;;5071436;28;20536;-69
2023/05/09 13:28:56;;;;;;;57.10;2.33;;;;;;;;;;5070978;28;20455;-71
2023/05/09 13:31:23;;;;;;;56.90;2.50;;;;;;;;;;5071545;28;20487;-69
2023/05/09 13:33:51;;;;;;;56.50;1.80;;;;;;;;;;5071511;28;21112;-69
2023/05/09 13:36:18;;;;;;;57.00;2.37;;;;;;;;;;5071213;28;20455;-70
2023/05/09 13:38:45;;;;;;;56.57;2.23;;;;;;;;;;5072824;28;20447;-69
2023/05/09 13:41:18;;;;;;;56.50;1.77;;;;;;;;;;5074910;28;20473;-70
2023/05/09 13:43:45;;;;;;;56.17;1.80;;;;;;;;;;5075222;28;20446;-70
2023/05/09 13:46:13;;;;;;;56.90;2.07;;;;;;;;;;5075085;28;20817;-69
2023/05/09 13:48:40;;;;;;;56.87;2.00;;;;;;;;;;5074769;28;20824;-69
2023/05/09 13:51:08;;;;;;;56.53;1.83;;;;;;;;;;5074722;28;20573;-69
2023/05/09 13:53:35;;;;;;;57.00;2.60;;;;;;;;;;5074759;28;20455;-69
2023/05/09 13:56:02;;;;;;;57.10;2.43;;;;;;;;;;5074820;28;20454;-70
2023/05/09 13:58:31;;;;;;;57.00;2.00;;;;;;;;;;5074825;28;20843;-70
2023/05/09 14:00:58;;;;;;;56.63;1.90;;;;;;;;;;5074879;28;20460;-70
2023/05/09 14:03:25;;;;;;;55.97;1.87;;;;;;;;;;5074675;28;20447;-70
2023/05/09 14:05:52;;;;;;;57.30;2.27;;;;;;;;;;5074678;28;20447;-70
2023/05/09 14:08:20;;;;;;;56.87;1.90;;;;;;;;;;5074340;28;20451;-70
2023/05/09 14:10:47;;;;;;;56.10;2.00;;;;;;;;;;5074370;28;20522;-70
2023/05/09 14:13:14;;;;;;;64.10;3.20;;;;;;;;;;5074643;28;20451;-69
2023/05/09 14:15:43;;;;;;;57.10;2.30;;;;;;;;;;5074529;28;20530;-70
2023/05/09 14:18:10;;;;;;;56.87;1.97;;;;;;;;;;5074623;28;21023;-70
2023/05/09 14:20:39;;;;;;;56.37;2.20;;;;;;;;;;5074214;28;20506;-70
2023/05/09 14:23:06;;;;;;;56.47;2.00;;;;;;;;;;5074396;28;20738;-70
2023/05/09 14:25:33;;;;;;;57.47;2.30;;;;;;;;;;5074149;28;21004;-69
2023/05/09 14:28:00;;;;;;;56.47;2.00;;;;;;;;;;5074318;28;20453;-69
2023/05/09 14:30:27;;;;;;;56.87;2.17;;;;;;;;;;5073682;28;20474;-69
2023/05/09 14:32:56;;;;;;;56.67;2.00;;;;;;;;;;5074181;28;20451;-69
2023/05/09 14:35:23;;;;;;;56.80;1.97;;;;;;;;;;5074030;28;20815;-70